Latest Weather Observations for Lucas Heights

IDN60801

Issued at 7:02 am EDT Tuesday 28 March 2017 (issued every 30 minutes, with the page automatically refreshed every 10 minutes)

About weather observations | Map of weather stations | Latest weather observations for NSW | Other Formats
Station Details ID: 066023 Name: LUCAS HEIGHTS AWS Lat: -34.05 Lon: 150.98 Height: 140.0 m
Data from the previous 72 hours. | See also: Recent months for locations in New South Wales
Date/Time
EDT
Temp
°C
App
Temp
°C
Dew
Point
°C
Rel
Hum
%
Delta-T
°C
Wind Press
QNH
hPa
Press
MSL
hPa
Rain since
9am
mm
Dir  Spd
km/h
Gust
km/h
Spd
kts
Gust
kts
28/06:45am 19.1 15.4 16.1 83 1.8 SSE 30 43 16 23 1011.9 - 0.2
28/06:30am 19.2 15.2 16.3 83 1.7 SSE 32 44 17 24 1011.8 - 0.2
28/06:15am 19.3 16.2 16.6 84 1.6 SSE 28 43 15 23 1011.7 - 0.2
28/06:00am 19.4 16.0 16.8 85 1.6 SSE 30 44 16 24 1011.5 - 0.2
28/05:45am 19.5 16.7 17.2 86 1.4 SSE 28 44 15 24 1011.2 - 0.2
28/05:30am 19.8 17.5 17.7 88 1.3 SSE 26 43 14 23 1011.0 - 0.2
28/05:15am 20.1 18.0 18.0 88 1.3 SSE 26 41 14 22 1010.8 - 0.2
28/05:00am 20.3 17.9 18.3 88 1.2 SSE 28 44 15 24 1010.6 - 0.2
28/04:45am 20.4 18.4 18.4 88 1.3 SSE 26 37 14 20 1010.5 - 0.2
28/04:30am 20.5 19.4 18.6 89 1.2 SSE 22 32 12 17 1010.5 - 0.0
28/04:15am 20.7 19.3 18.7 88 1.3 SE 24 39 13 21 1010.4 - 0.0
28/04:00am 20.7 19.6 18.7 88 1.3 SSE 22 33 12 18 1010.5 - 0.0
28/03:45am 20.9 20.5 18.9 88 1.3 SSE 19 28 10 15 1010.5 - 0.0
28/03:30am 21.0 20.5 19.0 88 1.3 SSE 20 32 11 17 1010.4 - 0.0
28/03:15am 21.0 20.6 19.0 88 1.3 SSE 19 30 10 16 1010.3 - 0.0
28/03:00am 20.4 20.6 18.6 89 1.1 SE 15 24 8 13 1010.4 - 0.0
28/02:45am 19.9 19.9 18.0 89 1.2 SSE 15 22 8 12 1010.6 - 0.0
28/02:30am 20.3 21.5 18.3 88 1.2 SSW 9 17 5 9 1010.2 - 0.0
28/02:15am 20.6 22.5 18.5 88 1.3 W 6 7 3 4 1010.0 - 0.0
28/02:00am 20.7 23.0 18.6 88 1.3 NW 4 6 2 3 1010.0 - 0.0
28/01:45am 20.7 23.4 18.6 88 1.3 NNW 2 4 1 2 1010.0 - 0.0
28/01:30am 20.7 23.4 18.7 88 1.3 N 2 7 1 4 1009.9 - 0.0
28/01:15am 20.4 22.6 18.3 88 1.3 NNE 4 7 2 4 1009.9 - 0.0
28/01:00am 20.6 22.9 18.5 88 1.3 SE 4 4 2 2 1010.4 - 0.0
28/12:45am 20.6 22.5 18.5 88 1.3 SSE 6 11 3 6 1010.7 - 0.0
28/12:30am 20.5 21.4 18.4 88 1.3 S 11 15 6 8 1011.2 - 0.0
28/12:15am 20.6 22.3 18.4 87 1.4 S 7 11 4 6 1011.1 - 0.0
28/12:00am 20.9 23.5 18.5 86 1.5 SSE 2 6 1 3 1010.7 - 0.0
 
Date/Time
EDT
Temp
°C
App
Temp
°C
Dew
Point
°C
Rel
Hum
%
Delta-T
°C
Wind Press
QNH
hPa
Press
MSL
hPa
Rain since
9am
mm
Dir  Spd
km/h
Gust
km/h
Spd
kts
Gust
kts
27/11:45pm 21.0 23.6 18.5 85 1.6 N 2 4 1 2 1010.6 - 0.0
27/11:30pm 21.2 23.5 18.6 85 1.6 - 4 6 2 3 1010.5 - 0.0
27/11:15pm 21.4 23.8 18.7 84 1.7 NNE 4 7 2 4 1010.7 - 0.0
27/11:00pm 21.7 24.1 18.9 84 1.8 ENE 4 7 2 4 1010.7 - 0.0
27/10:45pm 21.8 23.9 18.9 83 1.8 NE 6 7 3 4 1010.8 - 0.0
27/10:30pm 21.8 23.7 18.9 83 1.8 NNE 7 11 4 6 1010.8 - 0.0
27/10:15pm 21.9 23.8 19.0 83 1.8 NE 7 11 4 6 1010.6 - 0.0
27/10:00pm 21.9 23.0 18.9 83 1.9 NNE 11 17 6 9 1010.4 - 0.0
27/09:45pm 21.9 22.6 18.9 83 1.9 NNE 13 17 7 9 1010.3 - 0.0
27/09:30pm 22.0 23.2 19.0 83 1.9 NNE 11 17 6 9 1010.3 - 0.0
27/09:15pm 22.0 22.8 19.0 83 1.9 NNE 13 19 7 10 1010.1 - 0.0
27/09:00pm 22.1 22.9 19.1 83 1.9 NNE 13 17 7 9 1010.0 - 0.0
27/08:45pm 22.2 23.0 19.1 82 2.0 NNE 13 19 7 10 1009.8 - 0.0
27/08:30pm 22.3 22.8 19.2 82 2.0 NNE 15 20 8 11 1009.6 - 0.0
27/08:15pm 22.4 22.9 19.2 82 2.0 NNE 15 20 8 11 1009.4 - 0.0
27/08:00pm 22.5 23.0 19.2 81 2.1 NNE 15 20 8 11 1009.3 - 0.0
27/07:45pm 22.7 23.2 19.3 81 2.2 NNE 15 22 8 12 1009.3 - 0.0
27/07:30pm 22.9 23.4 19.3 80 2.3 NNE 15 24 8 13 1009.3 - 0.0
27/07:15pm 23.2 23.7 19.3 79 2.5 NNE 15 22 8 12 1009.3 - 0.0
27/07:00pm 23.6 24.2 19.4 77 2.7 NNE 15 24 8 13 1009.4 - 0.0
27/06:45pm 24.0 24.6 19.4 75 3.0 NNE 15 24 8 13 1009.4 - 0.0
27/06:30pm 24.6 25.2 19.5 73 3.3 NNE 15 20 8 11 1009.5 - 0.0
27/06:15pm 25.1 25.8 19.6 71 3.6 NE 15 20 8 11 1009.6 - 0.0
27/06:00pm 25.5 25.8 19.5 69 3.9 NE 17 24 9 13 1009.6 - 0.0
27/05:45pm 26.0 26.7 19.7 68 4.1 NE 15 24 8 13 1009.7 - 0.0
27/05:30pm 26.2 26.5 19.7 67 4.2 NE 17 24 9 13 1009.7 - 0.0
27/05:15pm 26.5 26.9 19.8 66 4.4 NNE 17 24 9 13 1009.8 - 0.0
27/05:00pm 26.5 26.5 19.8 66 4.4 NE 19 26 10 14 1010.0 - 0.0
27/04:45pm 26.6 26.6 19.7 66 4.5 NE 19 26 10 14 1010.2 - 0.0
27/04:30pm 26.8 27.1 19.7 65 4.6 NNE 17 26 9 14 1010.3 - 0.0
27/04:15pm 27.0 27.4 19.8 64 4.7 NE 17 24 9 13 1010.4 - 0.0
27/04:00pm 27.3 27.7 19.9 64 4.8 NE 17 26 9 14 1010.6 - 0.0
27/03:45pm 27.2 27.1 19.5 62 5.0 NE 19 26 10 14 1010.8 - 0.0
27/03:30pm 27.5 27.9 18.9 59 5.6 NNE 15 26 8 14 1011.0 - 0.0
27/03:15pm 27.8 27.0 17.0 51 6.8 N 17 30 9 16 1011.3 - 0.0
27/03:00pm 27.8 27.7 17.0 51 6.8 NNW 13 26 7 14 1011.5 - 0.0
27/02:45pm 27.7 27.3 17.1 52 6.7 N 15 24 8 13 1011.7 - 0.0
27/02:30pm 27.7 28.0 17.0 52 6.7 N 11 20 6 11 1012.1 - 0.0
27/02:15pm 27.3 26.9 17.2 54 6.4 N 15 24 8 13 1012.4 - 0.0
27/02:00pm 27.0 27.4 17.2 55 6.2 N 11 26 6 14 1012.8 - 0.0
27/01:45pm 26.9 26.6 17.4 56 6.0 N 15 24 8 13 1013.1 - 0.0
27/01:30pm 26.6 27.3 18.0 59 5.5 N 11 19 6 10 1013.4 - 0.0
27/01:15pm 26.1 25.9 17.5 59 5.4 NNW 15 22 8 12 1013.8 - 0.0
27/01:00pm 25.8 25.7 17.8 61 5.1 NNW 15 24 8 13 1014.1 - 0.0
27/12:45pm 25.7 26.0 17.9 62 4.9 NNW 13 22 7 12 1014.4 - 0.0
27/12:30pm 25.2 25.4 17.7 63 4.7 NNW 13 24 7 13 1014.6 - 0.0
27/12:15pm 24.8 25.1 17.8 65 4.4 NNW 13 24 7 13 1014.8 - 0.0
27/12:00pm 24.6 25.2 17.7 65 4.3 NNW 11 24 6 13 1015.1 - 0.0
27/11:45am 24.3 24.3 18.0 68 4.0 N 15 22 8 12 1015.3 - 0.0
27/11:30am 24.0 24.0 18.0 69 3.8 NNW 15 22 8 12 1015.6 - 0.0
27/11:15am 23.9 23.5 18.1 70 3.7 NNW 17 26 9 14 1015.7 - 0.0
27/11:00am 23.3 23.4 18.3 73 3.2 NNW 15 24 8 13 1015.8 - 0.0
27/10:45am 22.7 22.7 18.0 75 2.9 NNW 15 24 8 13 1016.0 - 0.0
27/10:30am 22.7 22.7 18.2 76 2.8 NNW 15 22 8 12 1016.2 - 0.0
27/10:15am 22.5 22.6 18.3 77 2.6 NNW 15 22 8 12 1016.4 - 0.0
27/10:00am 22.3 22.7 18.2 77 2.6 NNW 13 24 7 13 1016.5 - 0.0
27/09:45am 22.2 22.6 18.2 78 2.5 NNW 13 24 7 13 1016.6 - 0.0
27/09:30am 21.8 23.0 18.3 80 2.2 NW 9 17 5 9 1016.8 - 0.0
27/09:15am 21.5 22.4 18.3 82 2.0 NW 11 19 6 10 1016.9 - 0.0
27/09:00am 21.1 22.8 18.5 85 1.6 NW 7 15 4 8 1016.8 - 0.0
27/08:45am 20.5 22.1 18.3 87 1.4 WNW 7 13 4 7 1016.8 - 0.0
27/08:30am 20.1 20.9 18.2 89 1.2 WNW 11 15 6 8 1016.7 - 0.0
27/08:15am 19.8 20.6 18.1 90 1.1 NW 11 15 6 8 1016.6 - 0.0
27/08:00am 19.3 19.1 17.7 90 1.0 NW 15 17 8 9 1016.5 - 0.0
27/07:45am 18.8 18.4 17.2 90 1.0 NW 15 19 8 10 1016.4 - 0.0
27/07:30am 18.4 17.5 16.8 90 1.0 NW 17 19 9 10 1016.3 - 0.0
27/07:15am 18.3 17.7 16.7 90 1.0 NW 15 17 8 9 1016.1 - 0.0
27/07:00am 18.1 17.4 16.5 90 1.0 NNW 15 17 8 9 1015.9 - 0.0
27/06:45am 18.2 17.9 16.5 90 1.0 NNW 13 17 7 9 1015.8 - 0.0
27/06:30am 18.2 18.3 16.5 90 1.0 NNW 11 15 6 8 1015.8 - 0.0
27/06:15am 18.3 18.8 16.6 90 1.0 NNW 9 13 5 7 1015.8 - 0.0
27/06:00am 18.5 19.1 16.8 90 1.0 NNW 9 15 5 8 1015.7 - 0.0
27/05:45am 18.7 19.4 17.0 90 1.0 NNW 9 11 5 6 1015.7 - 0.0
27/05:30am 18.8 19.5 17.0 89 1.1 N 9 15 5 8 1015.7 - 0.0
27/05:15am 18.9 19.6 17.1 89 1.1 NNW 9 13 5 7 1015.8 - 0.0
27/05:00am 19.3 19.4 17.5 89 1.1 NNW 13 15 7 8 1015.8 - 0.0
27/04:45am 19.3 19.1 17.5 89 1.1 NNW 15 17 8 9 1015.9 - 0.0
27/04:30am 19.3 21.1 17.5 89 1.1 NW 4 15 2 8 1015.9 - 0.0
27/04:15am 19.3 19.8 17.4 89 1.2 NNW 11 17 6 9 1015.9 - 0.0
27/04:00am 19.3 19.0 17.4 89 1.2 NW 15 17 8 9 1016.0 - 0.0
27/03:45am 19.5 19.7 17.6 89 1.2 NW 13 15 7 8 1016.1 - 0.0
27/03:30am 19.6 20.2 17.6 88 1.2 NW 11 13 6 7 1016.2 - 0.0
27/03:15am 19.8 20.4 17.8 88 1.2 NNW 11 13 6 7 1016.3 - 0.0
27/03:00am 20.1 21.6 18.1 88 1.2 NNW 7 13 4 7 1016.4 - 0.0
27/02:45am 20.2 21.8 18.2 88 1.2 NW 7 13 4 7 1016.6 - 0.0
27/02:30am 20.0 21.1 17.9 88 1.3 NW 9 13 5 7 1016.6 - 0.0
27/02:15am 20.4 21.6 18.2 87 1.4 NNW 9 11 5 6 1016.8 - 0.0
27/02:00am 20.5 21.4 18.5 88 1.3 NW 11 15 6 8 1017.0 - 0.0
27/01:45am 20.4 22.1 18.4 88 1.3 NW 7 13 4 7 1017.2 - 0.0
27/01:30am 20.6 22.0 18.6 88 1.3 NW 9 13 5 7 1017.2 - 0.0
27/01:15am 20.4 21.3 18.4 88 1.3 NW 11 15 6 8 1017.3 - 0.0
27/01:00am 20.4 21.4 18.6 89 1.1 NW 11 15 6 8 1017.4 - 0.0
27/12:45am 20.2 21.1 18.4 89 1.1 NNW 11 15 6 8 1017.4 - 0.0
27/12:30am 20.1 21.7 18.3 89 1.1 NNW 7 11 4 6 1017.4 - 0.0
27/12:15am 19.9 21.0 18.1 89 1.1 NNW 9 13 5 7 1017.6 - 0.0
27/12:00am 19.6 20.6 17.8 89 1.1 NNW 9 13 5 7 1017.6 - 0.0
 
Date/Time
EDT
Temp
°C
App
Temp
°C
Dew
Point
°C
Rel
Hum
%
Delta-T
°C
Wind Press
QNH
hPa
Press
MSL
hPa
Rain since
9am
mm
Dir  Spd
km/h
Gust
km/h
Spd
kts
Gust
kts
26/11:45pm 19.3 20.2 17.5 89 1.1 NNW 9 13 5 7 1017.7 - 0.0
26/11:30pm 19.2 20.4 17.3 89 1.2 NNW 7 11 4 6 1017.8 - 0.0
26/11:15pm 19.4 20.6 17.4 88 1.2 N 7 13 4 7 1017.8 - 0.0
26/11:00pm 19.6 20.9 17.5 88 1.3 NNW 7 9 4 5 1017.8 - 0.0
26/10:45pm 19.8 20.7 17.6 87 1.4 N 9 11 5 6 1017.7 - 0.0
26/10:30pm 20.1 21.5 17.8 86 1.4 N 7 11 4 6 1017.7 - 0.0
26/10:15pm 20.5 22.0 18.1 86 1.5 NNE 7 15 4 8 1017.6 - 0.0
26/10:00pm 20.7 21.6 18.3 86 1.5 NNE 11 15 6 8 1017.4 - 0.0
26/09:45pm 20.8 21.7 18.3 85 1.6 NE 11 15 6 8 1017.4 - 0.0
26/09:30pm 20.9 22.2 18.4 85 1.6 NE 9 15 5 8 1017.2 - 0.0
26/09:15pm 21.1 22.4 18.5 85 1.6 NE 9 13 5 7 1017.1 - 0.0
26/09:00pm 21.4 22.4 18.7 84 1.7 NE 11 15 6 8 1016.8 - 0.0
26/08:45pm 21.5 22.1 18.7 84 1.8 NE 13 17 7 9 1016.5 - 0.0
26/08:30pm 21.6 22.3 18.8 84 1.8 NE 13 19 7 10 1016.4 - 0.0
26/08:15pm 21.6 22.6 18.7 83 1.8 NE 11 20 6 11 1016.2 - 0.0
26/08:00pm 21.8 23.2 18.7 82 2.0 NE 9 13 5 7 1016.0 - 0.0
26/07:45pm 22.1 23.2 18.8 81 2.1 NE 11 17 6 9 1015.8 - 0.0
26/07:30pm 22.3 23.4 18.9 81 2.2 ENE 11 17 6 9 1015.6 - 0.0
26/07:15pm 22.6 23.3 18.9 79 2.4 ENE 13 20 7 11 1015.4 - 0.0
26/07:00pm 22.9 23.6 18.9 78 2.5 ENE 13 20 7 11 1015.3 - 0.0
26/06:45pm 23.3 24.1 19.0 77 2.7 ENE 13 20 7 11 1015.1 - 0.0
26/06:30pm 23.6 24.4 19.0 75 2.9 ENE 13 20 7 11 1014.8 - 0.0
26/06:15pm 24.1 24.2 19.1 73 3.2 ENE 17 24 9 13 1014.7 - 0.0
26/06:00pm 24.4 24.6 19.3 73 3.3 NE 17 24 9 13 1014.5 - 0.0
26/05:45pm 24.8 25.8 19.4 72 3.5 ENE 13 20 7 11 1014.5 - 0.0
26/05:30pm 24.8 24.5 19.2 71 3.6 NE 19 24 10 13 1014.4 - 0.0
26/05:15pm 25.5 26.0 19.3 68 4.0 ENE 15 24 8 13 1014.3 - 0.0
26/05:00pm 25.9 26.9 19.4 67 4.2 ENE 13 20 7 11 1014.1 - 0.0
26/04:45pm 26.3 27.4 19.6 66 4.4 ENE 13 20 7 11 1014.0 - 0.0
26/04:30pm 26.1 26.7 19.5 67 4.3 NE 15 20 8 11 1013.9 - 0.0
26/04:15pm 26.2 26.9 19.6 67 4.3 NE 15 24 8 13 1013.9 - 0.0
26/04:00pm 26.4 26.9 19.3 65 4.6 ENE 15 24 8 13 1013.9 - 0.0
26/03:45pm 26.6 27.0 19.1 63 4.8 NE 15 22 8 12 1014.0 - 0.0
26/03:30pm 26.7 27.1 19.0 62 5.0 NE 15 22 8 12 1014.0 - 0.0
26/03:15pm 27.0 27.4 19.0 61 5.2 NE 15 20 8 11 1014.1 - 0.0
26/03:00pm 27.1 27.8 18.8 60 5.3 ENE 13 20 7 11 1014.1 - 0.0
26/02:45pm 27.2 28.4 18.3 58 5.7 NE 9 17 5 9 1014.2 - 0.0
26/02:30pm 26.5 27.8 18.5 61 5.1 NE 9 15 5 8 1014.3 - 0.0
26/02:15pm 26.3 28.0 18.0 60 5.3 NE 6 11 3 6 1014.3 - 0.0
26/02:00pm 26.3 27.7 17.9 60 5.3 ENE 7 13 4 7 1014.4 - 0.0
26/01:45pm 26.9 28.5 18.2 59 5.6 NNE 7 15 4 8 1014.6 - 0.0
26/01:30pm 26.9 28.9 18.7 60 5.3 NE 6 15 3 8 1014.8 - 0.0
26/01:15pm 26.4 28.1 18.5 62 5.1 NE 7 15 4 8 1015.0 - 0.0
26/01:00pm 26.3 28.1 18.7 63 4.9 NE 7 15 4 8 1015.2 - 0.0
26/12:45pm 26.7 28.7 19.1 63 4.9 NNE 7 13 4 7 1015.4 - 0.0
26/12:30pm 25.9 28.2 18.6 64 4.7 NE 4 11 2 6 1015.6 - 0.0
26/12:15pm 25.8 27.7 18.5 64 4.7 NNE 6 11 3 6 1015.7 - 0.0
26/12:00pm 25.8 27.6 18.7 65 4.5 NE 7 11 4 6 1015.7 - 0.0
26/11:45am 25.5 28.2 18.7 66 4.4 - 2 7 1 4 1015.8 - 0.0
26/11:30am 24.8 27.0 18.4 67 4.1 N 4 9 2 5 1015.9 - 0.0
26/11:15am 24.4 26.9 18.2 68 3.9 NNW 2 7 1 4 1016.0 - 0.0
26/11:00am 24.0 26.1 18.2 70 3.7 WNW 4 9 2 5 1016.1 - 0.0
26/10:45am 23.3 25.0 18.0 72 3.3 WNW 6 11 3 6 1016.1 - 0.0
26/10:30am 23.0 24.7 18.1 74 3.1 WNW 6 11 3 6 1016.0 - 0.0
26/10:15am 22.4 24.0 17.8 75 2.9 WNW 6 11 3 6 1015.9 - 0.0
26/10:00am 22.1 23.5 17.7 76 2.7 NW 7 9 4 5 1015.8 - 0.0
26/09:45am 21.8 23.4 17.8 78 2.5 WNW 6 7 3 4 1015.7 - 0.0
26/09:30am 21.3 23.2 17.7 80 2.2 WNW 4 7 2 4 1015.6 - 0.0
26/09:15am 21.3 23.3 17.9 81 2.1 W 4 7 2 4 1015.6 - 0.0
26/09:00am 20.9 23.5 18.5 86 1.5 WSW 2 6 1 3 1015.4 - 1.1
26/08:45am 19.8 21.9 18.0 89 1.1 SW 4 7 2 4 1015.3 - 1.1
26/08:30am 18.6 19.8 16.9 90 1.0 SW 6 7 3 4 1015.3 - 1.1
26/08:15am 17.9 18.8 16.2 90 1.0 SW 6 7 3 4 1015.2 - 1.1
26/08:00am 17.6 18.2 15.9 90 1.0 SW 7 7 4 4 1015.0 - 1.1
26/07:45am 17.6 18.2 15.8 89 1.1 SW 7 9 4 5 1014.9 - 1.1
26/07:30am 17.5 17.7 15.8 90 1.0 SW 9 11 5 6 1014.7 - 1.1
26/07:15am 17.5 17.7 15.8 90 1.0 SW 9 11 5 6 1014.5 - 1.1
26/07:00am 17.8 18.5 16.2 90 1.0 WSW 7 7 4 4 1014.4 - 1.1
26/06:45am 17.7 18.6 16.1 90 1.0 WSW 6 7 3 4 1014.2 - 1.1
26/06:30am 17.5 18.3 15.9 90 0.9 SW 6 7 3 4 1014.0 - 1.1
26/06:15am 17.3 17.8 15.6 90 1.0 WSW 7 7 4 4 1013.8 - 1.1
26/06:00am 17.6 18.2 15.9 90 1.0 WSW 7 7 4 4 1013.6 - 1.1
26/05:45am 17.5 18.3 15.8 90 1.0 WSW 6 7 3 4 1013.5 - 1.1
26/05:30am 17.7 18.3 15.9 89 1.1 SW 7 7 4 4 1013.5 - 1.1
26/05:15am 17.8 18.7 16.0 89 1.1 SSW 6 7 3 4 1013.3 - 1.1
26/05:00am 18.0 18.9 16.2 89 1.1 SSW 6 7 3 4 1013.4 - 1.1
26/04:45am 18.2 19.6 16.3 89 1.1 SSW 4 7 2 4 1013.4 - 1.1
26/04:30am 18.5 20.0 16.6 89 1.1 SSW 4 6 2 3 1013.3 - 1.1
26/04:15am 18.7 19.9 16.8 89 1.2 SSW 6 7 3 4 1013.4 - 1.1
26/04:00am 18.7 19.9 16.8 89 1.2 S 6 9 3 5 1013.6 - 1.1
26/03:45am 18.6 20.9 16.8 89 1.1 CALM 0 2 0 1 1013.6 - 1.1
26/03:30am 18.6 20.9 16.7 89 1.1 CALM 0 0 0 0 1013.6 - 1.1
26/03:15am 18.6 20.9 16.7 89 1.1 CALM 0 0 0 0 1013.7 - 1.1
26/03:00am 18.6 20.9 16.7 89 1.1 CALM 0 0 0 0 1013.8 - 1.1
26/02:45am 18.7 20.9 16.6 87 1.3 CALM 0 0 0 0 1013.9 - 1.1
26/02:30am 18.9 21.2 16.8 87 1.3 CALM 0 0 0 0 1013.9 - 1.1
26/02:15am 19.0 21.3 16.8 87 1.3 CALM 0 0 0 0 1013.8 - 1.1
26/02:00am 18.9 21.2 16.7 87 1.3 CALM 0 0 0 0 1013.9 - 1.1
26/01:45am 19.1 21.5 16.9 87 1.3 CALM 0 0 0 0 1013.9 - 1.1
26/01:30am 19.0 21.3 16.7 86 1.4 CALM 0 0 0 0 1014.2 - 1.1
26/01:15am 19.0 21.2 16.6 86 1.5 CALM 0 0 0 0 1014.4 - 1.1
26/01:00am 19.0 21.2 16.6 86 1.5 CALM 0 0 0 0 1014.5 - 1.1
26/12:45am 19.4 21.7 16.7 84 1.6 CALM 0 0 0 0 1014.5 - 1.1
26/12:30am 19.7 22.1 16.9 84 1.7 CALM 0 0 0 0 1014.6 - 1.1
26/12:15am 19.9 21.0 17.1 84 1.7 WNW 7 11 4 6 1014.8 - 1.1
26/12:00am 20.0 20.8 17.3 84 1.7 NW 9 11 5 6 1014.8 - 1.1
 
Date/Time
EDT
Temp
°C
App
Temp
°C
Dew
Point
°C
Rel
Hum
%
Delta-T
°C
Wind Press
QNH
hPa
Press
MSL
hPa
Rain since
9am
mm
Dir  Spd
km/h
Gust
km/h
Spd
kts
Gust
kts
25/11:45pm 19.9 21.1 17.3 85 1.6 NW 7 11 4 6 1014.9 - 1.1
25/11:30pm 19.7 20.8 17.2 85 1.5 NW 7 7 4 4 1015.0 - 1.1
25/11:15pm 19.6 20.7 17.2 86 1.5 NNW 7 9 4 5 1015.0 - 1.1
25/11:00pm 19.5 20.2 17.1 86 1.5 NNW 9 13 5 7 1014.8 - 1.1
25/10:45pm 19.6 20.7 17.2 86 1.5 NNW 7 11 4 6 1015.0 - 1.1
25/10:30pm 19.6 21.0 17.3 86 1.4 NNW 6 7 3 4 1015.0 - 1.1
25/10:15pm 19.6 20.9 17.2 86 1.5 N 6 7 3 4 1014.8 - 1.1
25/10:00pm 19.7 21.5 17.4 86 1.4 N 4 7 2 4 1015.0 - 1.1
25/09:45pm 19.6 21.0 17.3 86 1.4 N 6 9 3 5 1015.0 - 1.1
25/09:30pm 19.7 21.2 17.5 87 1.4 N 6 7 3 4 1014.9 - 1.1
25/09:15pm 19.7 21.2 17.5 87 1.4 NNE 6 7 3 4 1014.8 - 1.1
25/09:00pm 19.8 21.7 17.6 87 1.4 NE 4 7 2 4 1014.6 - 1.1
25/08:45pm 19.7 21.5 17.4 86 1.4 NE 4 7 2 4 1014.5 - 1.1
25/08:30pm 19.9 21.7 17.5 86 1.5 NE 4 7 2 4 1014.3 - 1.1
25/08:15pm 19.9 21.4 17.5 86 1.5 NE 6 7 3 4 1014.1 - 1.1
25/08:00pm 19.9 21.8 17.6 86 1.4 ENE 4 6 2 3 1014.1 - 1.1
25/07:45pm 19.9 21.7 17.5 86 1.5 ENE 4 7 2 4 1014.1 - 1.1
25/07:30pm 19.8 21.6 17.4 86 1.5 NE 4 7 2 4 1014.0 - 1.1
25/07:15pm 19.8 21.6 17.4 86 1.5 E 4 6 2 3 1014.0 - 1.1
25/07:00pm 19.8 21.6 17.4 86 1.5 ENE 4 7 2 4 1013.8 - 1.1
25/06:45pm 20.0 21.5 17.5 85 1.5 ENE 6 7 3 4 1013.6 - 1.1
25/06:30pm 20.0 21.4 17.4 85 1.6 NE 6 11 3 6 1013.4 - 1.1
25/06:15pm 20.1 20.9 17.3 84 1.7 NE 9 13 5 7 1013.2 - 1.1
25/06:00pm 20.0 21.3 17.1 83 1.8 ENE 6 9 3 5 1013.4 - 1.1
25/05:45pm 20.2 21.3 16.7 80 2.1 NE 6 9 3 5 1013.3 - 1.1
25/05:30pm 21.2 22.6 16.3 73 3.0 N 4 6 2 3 1013.3 - 0.9
25/05:15pm 22.2 23.4 16.0 68 3.8 NNE 4 11 2 6 1013.4 - 0.0
25/05:00pm 22.4 24.3 15.8 66 4.0 CALM 0 4 0 2 1013.4 - 0.0
25/04:45pm 22.4 23.9 15.7 66 4.0 NNW 2 4 1 2 1013.6 - 0.0
25/04:30pm 22.5 24.2 16.1 67 3.9 NNW 2 4 1 2 1013.7 - 0.0
25/04:15pm 22.3 23.5 15.8 66 3.9 - 4 6 2 3 1013.6 - 0.0
25/04:00pm 22.3 23.4 15.6 66 4.0 N 4 7 2 4 1013.7 - 0.0
25/03:45pm 22.5 23.2 15.7 65 4.1 NNW 6 11 3 6 1013.9 - 0.0
25/03:30pm 22.6 23.2 15.7 65 4.2 NW 7 15 4 8 1013.9 - 0.0
25/03:15pm 22.7 23.2 15.5 64 4.3 NNW 7 15 4 8 1014.0 - 0.0
25/03:00pm 23.3 23.9 15.8 62 4.6 NNW 7 11 4 6 1013.9 - 0.0
25/02:45pm 22.9 23.0 15.5 63 4.5 NNW 9 15 5 8 1013.9 - 0.0
25/02:30pm 22.9 22.9 15.2 62 4.6 NW 9 17 5 9 1014.1 - 0.0
25/02:15pm 23.4 22.3 15.2 60 4.9 NNW 15 22 8 12 1014.1 - 0.0
25/02:00pm 23.5 23.5 15.2 59 5.0 N 9 19 5 10 1014.4 - 0.0
25/01:45pm 23.3 23.3 15.2 60 4.9 N 9 19 5 10 1014.6 - 0.0
25/01:30pm 22.8 21.8 14.7 60 4.8 NNW 13 24 7 13 1015.0 - 0.0
25/01:15pm 22.9 21.2 14.7 60 4.9 NNW 17 26 9 14 1015.2 - 0.0
25/01:00pm 23.1 22.6 15.0 60 4.8 NNW 11 20 6 11 1015.6 - 0.0
25/12:45pm 22.9 22.1 15.2 62 4.6 NNW 13 20 7 11 1015.9 - 0.0
25/12:30pm 22.3 22.3 15.2 64 4.2 NW 9 17 5 9 1016.4 - 0.0
25/12:15pm 21.9 22.3 15.3 66 4.0 NNW 7 17 4 9 1016.8 - 0.0
25/12:00pm 21.8 22.2 15.4 67 3.8 NNW 7 13 4 7 1016.9 - 0.0
25/11:45am 21.7 22.2 15.5 68 3.7 NNW 7 13 4 7 1017.1 - 0.0
25/11:30am 21.5 22.0 15.6 69 3.5 N 7 17 4 9 1017.0 - 0.0
25/11:15am 21.3 20.5 15.0 67 3.7 N 13 22 7 12 1017.0 - 0.0
25/11:00am 22.1 22.4 15.9 68 3.8 NNW 9 19 5 10 1017.2 - 0.0
25/10:45am 21.2 21.3 15.6 70 3.4 NNW 9 17 5 9 1017.3 - 0.0
25/10:30am 21.5 21.6 15.4 68 3.7 NNW 9 20 5 11 1017.5 - 0.0
25/10:15am 20.7 21.1 15.3 71 3.2 NNW 7 15 4 8 1017.5 - 0.0
25/10:00am 20.8 21.4 15.2 70 3.3 WNW 6 13 3 7 1017.3 - 0.0
25/09:45am 20.5 21.1 15.2 71 3.1 WNW 6 11 3 6 1017.3 - 0.0
25/09:30am 20.3 20.7 15.2 72 3.0 W 7 11 4 6 1017.3 - 0.0
25/09:15am 20.1 20.5 15.4 74 2.8 W 7 13 4 7 1017.4 - 0.0
25/09:00am 19.9 20.6 15.7 77 2.5 W 6 9 3 5 1017.4 - 0.0
25/08:45am 19.2 20.1 16.0 82 1.9 W 6 9 3 5 1017.2 - 0.0
25/08:30am 18.5 19.9 16.3 87 1.3 W 4 7 2 4 1017.2 - 0.0
25/08:15am 17.7 18.9 15.8 89 1.1 W 4 7 2 4 1017.0 - 0.0
25/08:00am 17.2 18.2 15.3 88 1.1 W 4 7 2 4 1017.0 - 0.0
25/07:45am 17.0 18.6 15.0 88 1.2 CALM 0 4 0 2 1016.7 - 0.0
25/07:30am 17.1 18.0 15.2 88 1.1 WSW 4 6 2 3 1016.9 - 0.0
25/07:15am 17.1 17.6 15.1 88 1.2 WSW 6 7 3 4 1016.9 - 0.0

Other Formats:

Comma delimited format used in spreadsheet applications
http://www.bom.gov.au/fwo/IDN60801/IDN60801.95757.axf

JavaScript Object Notation format (JSON) in row-major order
http://www.bom.gov.au/fwo/IDN60801/IDN60801.95757.json